createdAt,value
2023-04-15T00:02:22.194Z,43.40
2023-04-15T00:04:54.845Z,42.86
2023-04-15T00:07:28.480Z,42.81
2023-04-15T00:10:01.426Z,42.17
2023-04-15T00:12:33.485Z,42.38
2023-04-15T00:15:06.480Z,42.42
2023-04-15T00:17:40.251Z,42.04
2023-04-15T00:20:13.261Z,42.55
2023-04-15T00:22:45.256Z,43.07
2023-04-15T00:25:18.071Z,43.07
2023-04-15T00:27:51.142Z,42.45
2023-04-15T00:30:23.166Z,42.70
2023-04-15T00:32:56.479Z,42.80
2023-04-15T00:35:28.629Z,42.69
2023-04-15T00:42:24.373Z,43.28
2023-04-15T00:44:54.855Z,43.07
2023-04-15T00:47:27.332Z,42.92
2023-04-15T00:50:00.560Z,43.69
2023-04-15T00:52:33.524Z,44.20
2023-04-15T00:55:06.591Z,44.34
2023-04-15T00:57:42.364Z,44.54
2023-04-15T01:04:07.242Z,44.10
2023-04-15T01:06:41.294Z,43.81
2023-04-15T01:09:16.154Z,45.17
2023-04-15T01:11:50.096Z,45.68
2023-04-15T01:14:23.175Z,45.84
2023-04-15T01:16:57.168Z,46.08
2023-04-15T01:19:30.198Z,45.05
2023-04-15T01:22:03.382Z,45.11
2023-04-15T01:24:39.442Z,46.10
2023-04-15T01:27:12.569Z,45.67
2023-04-15T01:29:46.238Z,45.66
2023-04-15T01:32:19.603Z,45.74
2023-04-15T01:34:53.850Z,45.30
2023-04-15T01:37:28.225Z,45.17
2023-04-15T01:40:01.626Z,45.80
2023-04-15T01:42:35.953Z,46.00
2023-04-15T01:45:10.127Z,45.45
2023-04-15T01:47:43.502Z,45.01
2023-04-15T01:50:19.505Z,44.66
2023-04-15T01:52:53.115Z,44.58
2023-04-15T01:55:25.753Z,44.84
2023-04-15T01:57:58.649Z,44.98
2023-04-15T02:00:33.528Z,45.46
2023-04-15T02:03:06.725Z,45.54
2023-04-15T02:05:40.074Z,45.64
2023-04-15T02:08:13.242Z,45.35
2023-04-15T02:10:46.852Z,45.15
2023-04-15T02:13:20.296Z,44.62
2023-04-15T02:15:55.379Z,44.20
2023-04-15T02:18:26.750Z,43.28
2023-04-15T02:21:01.255Z,42.75
2023-04-15T02:23:35.643Z,42.68
2023-04-15T02:26:08.937Z,43.25
2023-04-15T02:28:41.205Z,43.26
2023-04-15T02:31:14.680Z,42.21
2023-04-15T02:33:48.367Z,42.63
2023-04-15T02:36:21.450Z,42.14
2023-04-15T02:38:54.953Z,41.88
2023-04-15T02:41:30.303Z,41.13
2023-04-15T02:44:03.770Z,40.26
2023-04-15T02:46:37.191Z,40.46
2023-04-15T02:49:09.566Z,40.50
2023-04-15T02:51:43.956Z,41.33
2023-04-15T02:54:15.552Z,41.60
2023-04-15T02:56:49.453Z,40.73
2023-04-15T02:59:21.763Z,40.84
2023-04-15T03:01:52.856Z,40.25
2023-04-15T03:04:22.184Z,40.74
2023-04-15T03:06:51.367Z,41.14
2023-04-15T03:09:20.709Z,42.15
2023-04-15T03:11:50.009Z,41.13
2023-04-15T03:14:19.904Z,40.71
2023-04-15T03:16:51.492Z,41.09
2023-04-15T03:19:21.149Z,41.49
2023-04-15T03:21:50.099Z,40.80
2023-04-15T03:24:21.922Z,41.42
2023-04-15T03:26:51.148Z,42.40
2023-04-15T03:29:20.717Z,42.04
2023-04-15T03:31:50.333Z,42.08
2023-04-15T03:34:19.677Z,41.92
2023-04-15T03:36:49.140Z,42.02
2023-04-15T03:39:18.171Z,42.68
2023-04-15T03:41:47.961Z,42.80
2023-04-15T03:44:17.554Z,42.42
2023-04-15T03:46:46.776Z,42.17
2023-04-15T03:49:16.146Z,42.23
2023-04-15T03:51:45.957Z,41.84
2023-04-15T03:54:16.264Z,41.80
2023-04-15T03:56:45.591Z,42.15
2023-04-15T03:59:14.496Z,42.14
2023-04-15T04:01:43.914Z,41.32
2023-04-15T04:04:13.495Z,41.71
2023-04-15T04:06:43.117Z,40.65
2023-04-15T04:09:12.178Z,40.56
2023-04-15T04:11:41.471Z,39.70
2023-04-15T04:14:11.523Z,39.90
2023-04-15T04:16:40.741Z,39.63
2023-04-15T04:19:10.235Z,39.28
2023-04-15T04:21:40.609Z,39.02
2023-04-15T04:24:09.923Z,37.94
2023-04-15T04:26:39.032Z,37.98
2023-04-15T04:29:08.353Z,37.56
2023-04-15T04:31:38.084Z,37.13
2023-04-15T04:34:07.728Z,36.44
2023-04-15T04:36:36.849Z,36.43
2023-04-15T04:39:06.067Z,36.06
2023-04-15T04:41:35.290Z,36.17
2023-04-15T04:44:04.674Z,36.19
2023-04-15T04:46:34.508Z,35.97
2023-04-15T04:49:03.728Z,35.48
2023-04-15T04:51:33.506Z,35.93
2023-04-15T04:54:03.813Z,35.83
2023-04-15T04:56:33.194Z,35.41
2023-04-15T04:59:03.613Z,35.87
2023-04-15T05:01:33.054Z,34.55
2023-04-15T05:04:02.380Z,34.07
2023-04-15T05:06:32.651Z,34.84
2023-04-15T05:09:02.690Z,33.69
2023-04-15T05:11:32.401Z,33.59
2023-04-15T05:14:03.415Z,32.76
2023-04-15T05:16:32.815Z,32.57
2023-04-15T05:19:02.724Z,31.91
2023-04-15T05:21:32.929Z,32.21
2023-04-15T05:24:02.026Z,31.71
2023-04-15T05:26:31.300Z,31.07
2023-04-15T05:29:00.999Z,29.82
2023-04-15T05:31:30.440Z,30.37
2023-04-15T05:33:59.576Z,31.25
2023-04-15T05:36:29.813Z,29.63
2023-04-15T05:38:58.946Z,28.58
2023-04-15T05:41:28.360Z,28.80
2023-04-15T05:43:57.425Z,29.09
2023-04-15T05:46:26.727Z,27.49
2023-04-15T05:48:58.392Z,27.18
2023-04-15T05:51:28.396Z,26.25
2023-04-15T05:53:57.370Z,26.25
2023-04-15T05:56:28.256Z,27.01
2023-04-15T05:58:57.574Z,26.03
2023-04-15T06:01:27.308Z,24.12
2023-04-15T06:03:56.537Z,24.12
2023-04-15T06:06:26.197Z,23.87
2023-04-15T06:08:57.121Z,23.99
2023-04-15T06:11:27.894Z,23.86
2023-04-15T06:13:57.854Z,21.75
2023-04-15T06:16:27.217Z,23.07
2023-04-15T06:18:56.548Z,22.82
2023-04-15T06:21:25.735Z,22.21
2023-04-15T06:23:54.898Z,23.14
2023-04-15T06:26:24.253Z,22.48
2023-04-15T06:28:53.902Z,21.85
2023-04-15T06:31:23.286Z,21.76
2023-04-15T06:33:52.553Z,20.58
2023-04-15T06:36:22.269Z,22.14
2023-04-15T06:38:51.596Z,21.80
2023-04-15T06:41:20.828Z,22.09
2023-04-15T06:43:50.104Z,21.61
2023-04-15T06:46:19.265Z,20.94
2023-04-15T06:48:48.503Z,21.09
2023-04-15T06:51:17.912Z,21.52
2023-04-15T06:53:46.994Z,20.70
2023-04-15T06:56:16.207Z,20.62
2023-04-15T07:02:35.080Z,19.54
2023-04-15T07:05:04.156Z,19.68
2023-04-15T07:07:33.446Z,18.75
2023-04-15T07:10:04.671Z,19.14
2023-04-15T07:12:33.860Z,19.26
2023-04-15T07:15:03.541Z,19.45
2023-04-15T07:17:33.295Z,19.06
2023-04-15T07:20:02.553Z,18.88
2023-04-15T07:22:32.204Z,19.76
2023-04-15T07:25:11.328Z,19.00
2023-04-15T07:27:41.442Z,18.43
2023-04-15T07:30:11.616Z,17.87
2023-04-15T07:32:41.272Z,17.83
2023-04-15T07:35:10.984Z,16.93
2023-04-15T07:37:39.860Z,17.26
2023-04-15T07:40:10.211Z,16.89
2023-04-15T07:42:41.179Z,16.84
2023-04-15T07:45:11.098Z,18.40
2023-04-15T07:47:41.506Z,17.28
2023-04-15T07:50:12.606Z,18.25
2023-04-15T07:52:41.778Z,17.18
2023-04-15T07:55:11.916Z,17.28
2023-04-15T07:57:40.973Z,17.88
2023-04-15T08:00:10.998Z,18.68
2023-04-15T08:02:44.168Z,17.37
2023-04-15T08:05:15.096Z,17.66
2023-04-15T08:07:44.447Z,18.38
2023-04-15T08:10:14.145Z,17.89
2023-04-15T08:12:43.931Z,18.03
2023-04-15T08:15:14.071Z,17.70
2023-04-15T08:17:43.540Z,17.84
2023-04-15T08:20:13.171Z,16.98
2023-04-15T08:22:42.737Z,16.96
2023-04-15T08:25:15.747Z,17.66
2023-04-15T08:27:47.909Z,17.33
2023-04-15T08:30:17.342Z,16.98
2023-04-15T08:32:49.741Z,17.39
2023-04-15T08:35:19.445Z,17.79
2023-04-15T08:37:48.502Z,17.03
2023-04-15T08:40:18.022Z,17.35
2023-04-15T08:42:54.535Z,17.65
2023-04-15T08:45:24.657Z,17.46
2023-04-15T08:47:57.935Z,17.20
2023-04-15T08:50:30.645Z,16.88
2023-04-15T08:53:03.484Z,17.68
2023-04-15T08:55:37.602Z,17.53
2023-04-15T08:58:07.568Z,17.50
2023-04-15T09:00:37.175Z,18.36
2023-04-15T09:03:10.292Z,17.89
2023-04-15T09:05:40.358Z,17.98
2023-04-15T09:08:09.672Z,17.87
2023-04-15T09:14:53.216Z,17.94
2023-04-15T09:17:22.687Z,16.67
2023-04-15T09:20:08.904Z,18.41
2023-04-15T09:22:41.901Z,18.66
2023-04-15T09:25:17.314Z,19.61
2023-04-15T09:32:16.752Z,17.53
2023-04-15T09:34:45.989Z,18.05
2023-04-15T09:37:31.348Z,17.13
2023-04-15T09:40:01.499Z,17.50
2023-04-15T09:42:31.040Z,17.27
2023-04-15T09:45:13.246Z,17.56
2023-04-15T09:47:42.788Z,17.66
2023-04-15T09:50:12.636Z,17.56
2023-04-15T09:52:45.712Z,17.52
2023-04-15T09:55:15.835Z,17.24
2023-04-15T09:57:50.372Z,19.10
2023-04-15T10:00:19.889Z,19.59
2023-04-15T10:02:50.056Z,18.03
2023-04-15T10:05:19.912Z,19.56
2023-04-15T10:07:49.270Z,19.25
2023-04-15T10:10:19.183Z,17.63
2023-04-15T10:12:48.175Z,17.12
2023-04-15T10:15:21.493Z,17.25
2023-04-15T10:17:52.164Z,18.06
2023-04-15T10:20:22.414Z,17.86
2023-04-15T10:22:53.282Z,17.89
2023-04-15T10:25:23.079Z,18.28
2023-04-15T10:27:53.808Z,17.04
2023-04-15T10:30:23.881Z,17.50
2023-04-15T10:32:54.306Z,17.87
2023-04-15T10:35:24.650Z,17.61
2023-04-15T10:37:53.668Z,17.47
2023-04-15T10:40:32.356Z,17.22
2023-04-15T10:43:02.835Z,17.94
2023-04-15T10:45:37.759Z,17.66
2023-04-15T10:48:09.906Z,17.83
2023-04-15T10:50:40.351Z,18.48
2023-04-15T10:53:12.308Z,19.52
2023-04-15T10:55:41.692Z,18.65
2023-04-15T10:58:11.894Z,17.80
2023-04-15T11:04:59.208Z,18.99
2023-04-15T11:07:50.065Z,18.41
2023-04-15T11:10:22.289Z,18.43
2023-04-15T11:12:59.029Z,19.75
2023-04-15T11:15:47.380Z,19.26
2023-04-15T11:18:21.406Z,19.25
2023-04-15T11:20:57.456Z,20.27
2023-04-15T11:23:52.514Z,19.43
2023-04-15T11:26:28.220Z,20.23
2023-04-15T11:28:58.602Z,19.23
2023-04-15T11:31:30.360Z,18.98
2023-04-15T11:34:04.322Z,19.70
2023-04-15T11:36:34.258Z,19.49
2023-04-15T11:39:05.014Z,20.15
2023-04-15T11:41:34.369Z,18.77
2023-04-15T11:44:03.996Z,18.38
2023-04-15T11:46:33.225Z,18.89
2023-04-15T11:49:02.747Z,20.12
2023-04-15T11:51:36.141Z,19.96
2023-04-15T11:54:06.020Z,19.73
2023-04-15T11:56:35.224Z,20.53
2023-04-15T11:59:05.517Z,21.05
2023-04-15T12:01:40.553Z,20.95
2023-04-15T12:04:25.890Z,21.27
2023-04-15T12:06:55.431Z,20.74
2023-04-15T12:09:24.554Z,21.05
2023-04-15T12:11:55.028Z,21.15
2023-04-15T12:14:33.706Z,21.01
2023-04-15T12:17:06.012Z,21.01
2023-04-15T12:19:40.424Z,21.68
2023-04-15T12:22:14.990Z,22.06
2023-04-15T12:24:48.856Z,21.63
2023-04-15T12:27:18.839Z,20.98
2023-04-15T12:29:48.168Z,20.90
2023-04-15T12:32:21.203Z,22.07
2023-04-15T12:34:55.416Z,21.77
2023-04-15T12:37:25.165Z,21.94
2023-04-15T12:39:55.406Z,22.51
2023-04-15T12:42:24.607Z,22.64
2023-04-15T12:44:53.778Z,22.77
2023-04-15T12:47:22.995Z,23.42
2023-04-15T12:49:52.845Z,23.37
2023-04-15T12:52:24.325Z,23.84
2023-04-15T12:54:54.492Z,23.84
2023-04-15T12:57:23.590Z,24.34
2023-04-15T12:59:52.711Z,24.67
2023-04-15T13:02:25.124Z,25.30
2023-04-15T13:04:55.076Z,24.41
2023-04-15T13:07:24.105Z,23.87
2023-04-15T13:09:53.525Z,23.80
2023-04-15T13:12:23.092Z,23.49
2023-04-15T13:14:52.293Z,23.31
2023-04-15T13:17:23.163Z,24.33
2023-04-15T13:19:52.222Z,23.51
2023-04-15T13:22:21.536Z,23.00
2023-04-15T13:24:52.571Z,24.27
2023-04-15T13:27:22.406Z,24.06
2023-04-15T13:29:51.465Z,23.95
2023-04-15T13:32:20.769Z,24.52
2023-04-15T13:34:50.136Z,26.12
2023-04-15T13:37:19.439Z,25.62
2023-04-15T13:39:48.869Z,24.96
2023-04-15T13:42:18.086Z,26.04
2023-04-15T13:44:47.220Z,24.73
2023-04-15T13:47:17.377Z,25.97
2023-04-15T13:49:46.469Z,25.93
2023-04-15T13:52:15.806Z,26.09
2023-04-15T13:54:45.321Z,27.44
2023-04-15T13:57:15.370Z,27.93
2023-04-15T14:03:57.866Z,28.38
2023-04-15T14:06:28.245Z,28.84
2023-04-15T14:08:58.188Z,28.57
2023-04-15T14:11:27.260Z,28.28
2023-04-15T14:13:56.374Z,28.72
2023-04-15T14:16:25.544Z,29.36
2023-04-15T14:18:55.363Z,28.72
2023-04-15T14:21:24.128Z,27.69
2023-04-15T14:23:53.387Z,28.74
2023-04-15T14:26:22.173Z,29.32
2023-04-15T14:28:51.505Z,29.12
2023-04-15T14:31:21.229Z,29.53
2023-04-15T14:33:50.577Z,29.39
2023-04-15T14:36:19.748Z,29.76
2023-04-15T14:38:48.950Z,29.24
2023-04-15T14:41:18.344Z,30.31
2023-04-15T14:43:47.562Z,31.51
2023-04-15T14:46:17.343Z,31.19
2023-04-15T14:48:46.545Z,30.75
2023-04-15T14:51:15.764Z,30.37
2023-04-15T14:53:44.967Z,29.04
2023-04-15T14:56:14.159Z,30.83
2023-04-15T14:58:43.222Z,32.20
2023-04-15T15:05:03.389Z,31.66
2023-04-15T15:07:32.589Z,31.34
2023-04-15T15:10:02.224Z,31.91
2023-04-15T15:12:31.482Z,30.73
2023-04-15T15:15:01.581Z,32.79
2023-04-15T15:17:32.619Z,31.83
2023-04-15T15:20:01.582Z,31.36
2023-04-15T15:22:30.630Z,31.16
2023-04-15T15:25:00.283Z,30.96
2023-04-15T15:27:29.760Z,30.49
2023-04-15T15:29:58.918Z,29.70
2023-04-15T15:32:28.057Z,32.35
2023-04-15T15:34:56.965Z,32.69
2023-04-15T15:37:26.258Z,32.36
2023-04-15T15:39:55.354Z,31.93
2023-04-15T15:42:24.778Z,31.43
2023-04-15T15:44:54.277Z,31.70
2023-04-15T15:47:24.244Z,31.17
2023-04-15T15:49:53.464Z,31.54
2023-04-15T15:52:22.694Z,31.56
2023-04-15T15:54:51.899Z,31.46
2023-04-15T15:57:20.735Z,31.82
2023-04-15T15:59:51.177Z,31.71
2023-04-15T16:02:40.082Z,31.45
2023-04-15T16:05:13.204Z,31.58
2023-04-15T16:07:42.375Z,31.46
2023-04-15T16:10:12.249Z,31.41
2023-04-15T16:12:42.608Z,29.53
2023-04-15T16:15:12.052Z,29.19
2023-04-15T16:17:41.132Z,29.51
2023-04-15T16:20:10.599Z,29.41
2023-04-15T16:22:40.355Z,29.96
2023-04-15T16:25:09.685Z,29.87
2023-04-15T16:30:12.017Z,30.08
2023-04-15T16:32:41.241Z,30.26
2023-04-15T16:35:10.714Z,30.11
2023-04-15T16:37:39.855Z,29.98
2023-04-15T16:40:09.473Z,30.06
2023-04-15T16:42:38.341Z,29.99
2023-04-15T16:45:07.981Z,30.16
2023-04-15T16:47:37.045Z,30.66
2023-04-15T16:50:06.521Z,30.72
2023-04-15T16:52:35.710Z,30.93
2023-04-15T16:55:07.514Z,30.75
2023-04-15T16:58:00.481Z,31.25
2023-04-15T17:00:26.321Z,30.89
2023-04-15T17:02:57.259Z,31.00
2023-04-15T17:05:28.218Z,29.99
2023-04-15T17:07:57.355Z,30.26
2023-04-15T17:10:26.290Z,30.43
2023-04-15T17:12:57.631Z,29.96
2023-04-15T17:15:26.975Z,30.22
2023-04-15T17:17:56.020Z,30.35
2023-04-15T17:20:25.348Z,30.47
2023-04-15T17:22:54.708Z,30.95
2023-04-15T17:25:24.480Z,31.07
2023-04-15T17:27:53.464Z,30.91
2023-04-15T17:30:22.617Z,31.22
2023-04-15T17:32:53.115Z,30.96
2023-04-15T17:35:22.440Z,31.11
2023-04-15T17:37:51.739Z,31.44
2023-04-15T17:40:20.851Z,31.36
2023-04-15T17:42:50.298Z,31.05
2023-04-15T17:45:19.831Z,30.82
2023-04-15T17:47:49.712Z,30.82
2023-04-15T17:50:18.892Z,30.80
2023-04-15T17:52:49.318Z,31.02
2023-04-15T17:55:18.458Z,31.00
2023-04-15T17:57:48.100Z,30.92
2023-04-15T18:00:18.443Z,30.59
2023-04-15T18:02:48.049Z,30.88
2023-04-15T18:05:17.043Z,31.03
2023-04-15T18:07:46.573Z,31.22
2023-04-15T18:10:15.619Z,31.33
2023-04-15T18:12:44.608Z,31.45
2023-04-15T18:15:15.644Z,31.59
2023-04-15T18:17:44.948Z,31.70
2023-04-15T18:20:13.914Z,31.94
2023-04-15T18:22:44.530Z,32.21
2023-04-15T18:25:13.675Z,32.04
2023-04-15T18:27:42.954Z,32.44
2023-04-15T18:30:13.243Z,32.76
2023-04-15T18:32:43.264Z,33.08
2023-04-15T18:35:12.248Z,32.91
2023-04-15T18:37:41.942Z,33.10
2023-04-15T18:40:11.636Z,33.12
2023-04-15T18:42:41.121Z,33.38
2023-04-15T18:45:10.552Z,33.33
2023-04-15T18:47:39.828Z,33.64
2023-04-15T18:50:09.352Z,33.83
2023-04-15T18:52:38.573Z,33.80
2023-04-15T18:55:07.971Z,34.25
2023-04-15T18:57:37.847Z,34.40
2023-04-15T19:00:07.816Z,34.38
2023-04-15T19:02:36.971Z,34.35
2023-04-15T19:05:07.029Z,34.16
2023-04-15T19:07:37.960Z,34.77
2023-04-15T19:10:07.829Z,34.42
2023-04-15T19:12:38.099Z,34.72
2023-04-15T19:15:49.899Z,34.88
2023-04-15T19:18:19.498Z,35.09
2023-04-15T19:20:51.432Z,35.31
2023-04-15T19:23:20.527Z,35.06
2023-04-15T19:25:49.585Z,35.28
2023-04-15T19:28:18.798Z,35.22
2023-04-15T19:30:47.914Z,35.67
2023-04-15T19:33:17.183Z,35.97
2023-04-15T19:35:46.315Z,35.14
2023-04-15T19:38:15.810Z,35.50
2023-04-15T19:40:44.926Z,36.07
2023-04-15T19:43:14.268Z,35.97
2023-04-15T19:45:43.310Z,35.66
2023-04-15T19:48:12.486Z,35.93
2023-04-15T19:50:41.541Z,35.78
2023-04-15T19:53:10.772Z,35.87
2023-04-15T19:55:39.707Z,35.93
2023-04-15T19:58:08.991Z,35.54
2023-04-15T20:00:39.328Z,36.41
2023-04-15T20:03:09.410Z,36.39
2023-04-15T20:05:39.752Z,36.49
2023-04-15T20:08:09.884Z,36.64
2023-04-15T20:10:40.181Z,36.31
2023-04-15T20:13:10.087Z,36.17
2023-04-15T20:15:40.418Z,36.51
2023-04-15T20:18:10.402Z,36.15
2023-04-15T20:20:42.200Z,36.73
2023-04-15T20:23:13.320Z,36.67
2023-04-15T20:25:45.716Z,37.00
2023-04-15T20:28:17.849Z,36.90
2023-04-15T20:30:49.925Z,37.51
2023-04-15T20:33:22.578Z,37.32
2023-04-15T20:35:53.457Z,36.79
2023-04-15T20:38:25.847Z,37.37
2023-04-15T20:40:56.669Z,36.94
2023-04-15T20:43:29.479Z,37.13
2023-04-15T20:46:07.004Z,37.24
2023-04-15T20:48:50.079Z,37.81
2023-04-15T20:51:23.093Z,37.99
2023-04-15T20:53:54.645Z,37.50
2023-04-15T20:56:27.836Z,37.86
2023-04-15T20:58:59.002Z,37.47
2023-04-15T21:01:32.226Z,37.61
2023-04-15T21:04:03.484Z,37.78
2023-04-15T21:06:36.797Z,38.50
2023-04-15T21:09:08.561Z,38.15
2023-04-15T21:11:57.356Z,38.07
2023-04-15T21:14:32.366Z,38.12
2023-04-15T21:17:11.213Z,38.66
2023-04-15T21:19:44.048Z,37.78
2023-04-15T21:22:15.691Z,38.63
2023-04-15T21:24:47.853Z,38.52
2023-04-15T21:27:20.191Z,38.32
2023-04-15T21:29:52.370Z,37.93
2023-04-15T21:32:24.473Z,37.75
2023-04-15T21:34:56.117Z,38.55
2023-04-15T21:37:27.675Z,38.18
2023-04-15T21:39:59.237Z,38.12
2023-04-15T21:42:32.377Z,37.79
2023-04-15T21:45:04.011Z,38.28
2023-04-15T21:48:05.214Z,37.80
2023-04-15T21:50:28.231Z,38.13
2023-04-15T21:52:59.562Z,38.19
2023-04-15T21:55:32.752Z,38.07
2023-04-15T21:58:05.911Z,37.45
2023-04-15T22:00:39.132Z,38.25
2023-04-15T22:03:13.313Z,37.88
2023-04-15T22:05:51.270Z,37.71
2023-04-15T22:08:23.334Z,38.08
2023-04-15T22:10:55.902Z,37.94
2023-04-15T22:13:27.620Z,38.40
2023-04-15T22:15:59.186Z,38.73
2023-04-15T22:18:31.173Z,38.45
2023-04-15T22:21:04.369Z,39.13
2023-04-15T22:23:36.998Z,39.27
2023-04-15T22:26:10.304Z,38.51
2023-04-15T22:28:41.527Z,38.19
2023-04-15T22:31:14.059Z,38.73
2023-04-15T22:33:45.926Z,38.23
2023-04-15T22:36:19.409Z,38.47
2023-04-15T22:38:52.854Z,38.94
2023-04-15T22:41:25.440Z,38.52
2023-04-15T22:43:57.438Z,38.86
2023-04-15T22:46:29.492Z,39.22
2023-04-15T22:49:01.282Z,39.46
2023-04-15T22:51:35.700Z,39.08
2023-04-15T22:54:07.709Z,38.91
2023-04-15T22:56:40.303Z,39.19
2023-04-15T22:59:11.596Z,39.82
2023-04-15T23:01:43.915Z,39.72
2023-04-15T23:04:23.572Z,39.12
2023-04-15T23:07:01.165Z,38.97
2023-04-15T23:09:32.666Z,39.29
2023-04-15T23:12:06.318Z,39.21
2023-04-15T23:14:37.507Z,39.18
2023-04-15T23:17:09.469Z,38.47
2023-04-15T23:19:42.005Z,38.71
2023-04-15T23:22:14.227Z,39.22
2023-04-15T23:24:46.742Z,39.79
2023-04-15T23:27:20.112Z,39.53
2023-04-15T23:29:52.997Z,39.21
2023-04-15T23:32:26.729Z,39.57
2023-04-15T23:34:58.533Z,39.26
2023-04-15T23:37:30.386Z,39.23
2023-04-15T23:40:01.555Z,39.38
2023-04-15T23:42:34.390Z,39.69
2023-04-15T23:45:06.313Z,40.51
2023-04-15T23:47:38.935Z,40.67
2023-04-15T23:50:12.520Z,41.32
2023-04-15T23:52:44.575Z,40.99
2023-04-15T23:55:16.352Z,40.76
2023-04-15T23:57:48.940Z,41.24
